sensor_id;sensor_type;location;lat;lon;timestamp;P1;durP1;ratioP1;P2;durP2;ratioP2
44078;SDS011;29744;49.078;12.878;2024-03-29T00:01:33;0.30;;;0.30;;
44078;SDS011;29744;49.078;12.878;2024-03-29T00:06:33;0.52;;;0.30;;
44078;SDS011;29744;49.078;12.878;2024-03-29T00:11:33;0.63;;;0.40;;
44078;SDS011;29744;49.078;12.878;2024-03-29T00:16:34;0.40;;;0.30;;
44078;SDS011;29744;49.078;12.878;2024-03-29T00:21:34;0.30;;;0.30;;
44078;SDS011;29744;49.078;12.878;2024-03-29T00:26:34;0.82;;;0.30;;
44078;SDS011;29744;49.078;12.878;2024-03-29T00:31:35;0.30;;;0.30;;
44078;SDS011;29744;49.078;12.878;2024-03-29T00:36:35;0.32;;;0.30;;
44078;SDS011;29744;49.078;12.878;2024-03-29T00:41:35;0.43;;;0.40;;
44078;SDS011;29744;49.078;12.878;2024-03-29T00:46:36;0.28;;;0.20;;
44078;SDS011;29744;49.078;12.878;2024-03-29T00:51:36;0.52;;;0.30;;
44078;SDS011;29744;49.078;12.878;2024-03-29T00:56:36;0.40;;;0.32;;
44078;SDS011;29744;49.078;12.878;2024-03-29T01:01:36;0.35;;;0.28;;
44078;SDS011;29744;49.078;12.878;2024-03-29T01:06:37;0.44;;;0.30;;
44078;SDS011;29744;49.078;12.878;2024-03-29T01:11:38;0.30;;;0.30;;
44078;SDS011;29744;49.078;12.878;2024-03-29T01:16:39;0.17;;;0.17;;
44078;SDS011;29744;49.078;12.878;2024-03-29T01:21:39;0.38;;;0.20;;
44078;SDS011;29744;49.078;12.878;2024-03-29T01:26:40;0.57;;;0.30;;
44078;SDS011;29744;49.078;12.878;2024-03-29T01:31:40;0.32;;;0.30;;
44078;SDS011;29744;49.078;12.878;2024-03-29T01:36:40;0.20;;;0.20;;
44078;SDS011;29744;49.078;12.878;2024-03-29T01:41:40;0.30;;;0.30;;
44078;SDS011;29744;49.078;12.878;2024-03-29T01:46:41;0.50;;;0.30;;
44078;SDS011;29744;49.078;12.878;2024-03-29T01:51:41;0.80;;;0.50;;
44078;SDS011;29744;49.078;12.878;2024-03-29T01:56:44;0.30;;;0.30;;
44078;SDS011;29744;49.078;12.878;2024-03-29T02:01:45;0.35;;;0.20;;
44078;SDS011;29744;49.078;12.878;2024-03-29T02:06:46;0.32;;;0.30;;
44078;SDS011;29744;49.078;12.878;2024-03-29T02:11:47;0.88;;;0.40;;
44078;SDS011;29744;49.078;12.878;2024-03-29T02:16:47;0.30;;;0.30;;
44078;SDS011;29744;49.078;12.878;2024-03-29T02:21:48;0.68;;;0.40;;
44078;SDS011;29744;49.078;12.878;2024-03-29T02:26:51;0.32;;;0.30;;
44078;SDS011;29744;49.078;12.878;2024-03-29T02:31:52;0.60;;;0.30;;
44078;SDS011;29744;49.078;12.878;2024-03-29T02:36:52;0.30;;;0.30;;
44078;SDS011;29744;49.078;12.878;2024-03-29T02:41:53;0.47;;;0.40;;
44078;SDS011;29744;49.078;12.878;2024-03-29T02:46:53;0.38;;;0.22;;
44078;SDS011;29744;49.078;12.878;2024-03-29T02:51:53;0.30;;;0.30;;
44078;SDS011;29744;49.078;12.878;2024-03-29T02:56:54;0.47;;;0.30;;
44078;SDS011;29744;49.078;12.878;2024-03-29T03:01:55;0.28;;;0.25;;
44078;SDS011;29744;49.078;12.878;2024-03-29T03:06:55;0.20;;;0.20;;
44078;SDS011;29744;49.078;12.878;2024-03-29T03:12:06;0.40;;;0.20;;
44078;SDS011;29744;49.078;12.878;2024-03-29T03:17:06;0.30;;;0.30;;
44078;SDS011;29744;49.078;12.878;2024-03-29T03:22:07;0.47;;;0.30;;
44078;SDS011;29744;49.078;12.878;2024-03-29T03:27:07;0.20;;;0.20;;
44078;SDS011;29744;49.078;12.878;2024-03-29T03:32:07;0.57;;;0.47;;
44078;SDS011;29744;49.078;12.878;2024-03-29T03:37:08;0.30;;;0.30;;
44078;SDS011;29744;49.078;12.878;2024-03-29T03:42:08;0.20;;;0.20;;
44078;SDS011;29744;49.078;12.878;2024-03-29T03:47:08;0.68;;;0.40;;
44078;SDS011;29744;49.078;12.878;2024-03-29T03:52:09;0.30;;;0.30;;
44078;SDS011;29744;49.078;12.878;2024-03-29T03:57:09;0.30;;;0.30;;
44078;SDS011;29744;49.078;12.878;2024-03-29T04:02:10;0.30;;;0.20;;
44078;SDS011;29744;49.078;12.878;2024-03-29T04:07:10;0.40;;;0.22;;
44078;SDS011;29744;49.078;12.878;2024-03-29T04:12:10;0.40;;;0.30;;
44078;SDS011;29744;49.078;12.878;2024-03-29T04:17:11;0.77;;;0.20;;
44078;SDS011;29744;49.078;12.878;2024-03-29T04:22:11;0.40;;;0.30;;
44078;SDS011;29744;49.078;12.878;2024-03-29T04:27:11;0.30;;;0.30;;
44078;SDS011;29744;49.078;12.878;2024-03-29T04:32:12;0.30;;;0.30;;
44078;SDS011;29744;49.078;12.878;2024-03-29T04:37:13;0.52;;;0.30;;
44078;SDS011;29744;49.078;12.878;2024-03-29T04:42:13;0.40;;;0.40;;
44078;SDS011;29744;49.078;12.878;2024-03-29T04:47:15;0.20;;;0.20;;
44078;SDS011;29744;49.078;12.878;2024-03-29T04:52:15;0.30;;;0.30;;
44078;SDS011;29744;49.078;12.878;2024-03-29T04:57:15;0.30;;;0.25;;
44078;SDS011;29744;49.078;12.878;2024-03-29T05:02:16;0.40;;;0.38;;
44078;SDS011;29744;49.078;12.878;2024-03-29T05:07:16;0.28;;;0.28;;
44078;SDS011;29744;49.078;12.878;2024-03-29T05:12:16;0.20;;;0.20;;
44078;SDS011;29744;49.078;12.878;2024-03-29T05:17:16;0.30;;;0.30;;
44078;SDS011;29744;49.078;12.878;2024-03-29T05:22:17;0.20;;;0.20;;
44078;SDS011;29744;49.078;12.878;2024-03-29T05:27:17;0.17;;;0.17;;
44078;SDS011;29744;49.078;12.878;2024-03-29T05:32:17;0.20;;;0.20;;
44078;SDS011;29744;49.078;12.878;2024-03-29T05:37:18;0.30;;;0.30;;
44078;SDS011;29744;49.078;12.878;2024-03-29T05:42:19;0.30;;;0.30;;
44078;SDS011;29744;49.078;12.878;2024-03-29T05:47:19;0.43;;;0.20;;
44078;SDS011;29744;49.078;12.878;2024-03-29T05:52:20;0.20;;;0.20;;
44078;SDS011;29744;49.078;12.878;2024-03-29T05:57:23;0.45;;;0.30;;
44078;SDS011;29744;49.078;12.878;2024-03-29T06:02:29;0.20;;;0.20;;
44078;SDS011;29744;49.078;12.878;2024-03-29T06:07:30;0.40;;;0.20;;
44078;SDS011;29744;49.078;12.878;2024-03-29T06:12:33;0.13;;;0.13;;
44078;SDS011;29744;49.078;12.878;2024-03-29T06:17:34;0.30;;;0.30;;
44078;SDS011;29744;49.078;12.878;2024-03-29T06:22:37;0.30;;;0.20;;
44078;SDS011;29744;49.078;12.878;2024-03-29T06:27:37;0.20;;;0.20;;
44078;SDS011;29744;49.078;12.878;2024-03-29T06:32:38;0.38;;;0.22;;
44078;SDS011;29744;49.078;12.878;2024-03-29T06:37:38;0.38;;;0.22;;
44078;SDS011;29744;49.078;12.878;2024-03-29T06:42:40;0.30;;;0.20;;
44078;SDS011;29744;49.078;12.878;2024-03-29T06:47:40;0.20;;;0.20;;
44078;SDS011;29744;49.078;12.878;2024-03-29T06:52:40;0.30;;;0.30;;
44078;SDS011;29744;49.078;12.878;2024-03-29T06:57:41;0.40;;;0.28;;
44078;SDS011;29744;49.078;12.878;2024-03-29T07:02:41;0.30;;;0.20;;
44078;SDS011;29744;49.078;12.878;2024-03-29T07:07:42;0.10;;;0.10;;
44078;SDS011;29744;49.078;12.878;2024-03-29T07:12:42;0.18;;;0.18;;
44078;SDS011;29744;49.078;12.878;2024-03-29T07:17:42;0.40;;;0.20;;
44078;SDS011;29744;49.078;12.878;2024-03-29T07:22:43;0.30;;;0.30;;
44078;SDS011;29744;49.078;12.878;2024-03-29T07:27:45;0.22;;;0.20;;
44078;SDS011;29744;49.078;12.878;2024-03-29T07:32:46;0.30;;;0.30;;
44078;SDS011;29744;49.078;12.878;2024-03-29T07:37:46;0.25;;;0.20;;
44078;SDS011;29744;49.078;12.878;2024-03-29T07:42:49;0.22;;;0.13;;
44078;SDS011;29744;49.078;12.878;2024-03-29T07:47:49;0.15;;;0.15;;
44078;SDS011;29744;49.078;12.878;2024-03-29T07:52:52;0.30;;;0.20;;
44078;SDS011;29744;49.078;12.878;2024-03-29T07:57:52;0.40;;;0.38;;
44078;SDS011;29744;49.078;12.878;2024-03-29T08:02:53;0.30;;;0.30;;
44078;SDS011;29744;49.078;12.878;2024-03-29T08:07:54;0.38;;;0.30;;
44078;SDS011;29744;49.078;12.878;2024-03-29T08:12:54;0.20;;;0.20;;
44078;SDS011;29744;49.078;12.878;2024-03-29T08:17:55;0.20;;;0.20;;
44078;SDS011;29744;49.078;12.878;2024-03-29T08:22:56;0.20;;;0.20;;
44078;SDS011;29744;49.078;12.878;2024-03-29T08:27:58;0.38;;;0.30;;
44078;SDS011;29744;49.078;12.878;2024-03-29T08:32:58;0.47;;;0.20;;
44078;SDS011;29744;49.078;12.878;2024-03-29T08:38:00;0.52;;;0.30;;
44078;SDS011;29744;49.078;12.878;2024-03-29T08:43:00;0.30;;;0.30;;
44078;SDS011;29744;49.078;12.878;2024-03-29T08:48:01;0.20;;;0.20;;
44078;SDS011;29744;49.078;12.878;2024-03-29T08:53:04;0.30;;;0.30;;
44078;SDS011;29744;49.078;12.878;2024-03-29T08:58:05;0.40;;;0.30;;
44078;SDS011;29744;49.078;12.878;2024-03-29T09:03:06;0.30;;;0.30;;
44078;SDS011;29744;49.078;12.878;2024-03-29T09:08:06;0.30;;;0.30;;
44078;SDS011;29744;49.078;12.878;2024-03-29T09:13:06;0.30;;;0.30;;
44078;SDS011;29744;49.078;12.878;2024-03-29T09:18:09;0.40;;;0.20;;
44078;SDS011;29744;49.078;12.878;2024-03-29T09:23:11;0.20;;;0.20;;
44078;SDS011;29744;49.078;12.878;2024-03-29T09:28:15;0.30;;;0.30;;
44078;SDS011;29744;49.078;12.878;2024-03-29T09:33:16;0.40;;;0.40;;
44078;SDS011;29744;49.078;12.878;2024-03-29T09:38:16;0.65;;;0.38;;
44078;SDS011;29744;49.078;12.878;2024-03-29T09:43:16;0.70;;;0.40;;
44078;SDS011;29744;49.078;12.878;2024-03-29T09:48:18;0.30;;;0.30;;
44078;SDS011;29744;49.078;12.878;2024-03-29T09:53:18;0.52;;;0.40;;
44078;SDS011;29744;49.078;12.878;2024-03-29T09:58:20;0.85;;;0.47;;
44078;SDS011;29744;49.078;12.878;2024-03-29T10:03:22;1.55;;;0.55;;
44078;SDS011;29744;49.078;12.878;2024-03-29T10:08:29;0.80;;;0.60;;
44078;SDS011;29744;49.078;12.878;2024-03-29T10:13:31;0.95;;;0.60;;
44078;SDS011;29744;49.078;12.878;2024-03-29T10:18:31;1.38;;;0.65;;
44078;SDS011;29744;49.078;12.878;2024-03-29T10:23:32;1.55;;;0.60;;
44078;SDS011;29744;49.078;12.878;2024-03-29T10:28:34;1.38;;;0.80;;
44078;SDS011;29744;49.078;12.878;2024-03-29T10:33:35;0.95;;;0.60;;
44078;SDS011;29744;49.078;12.878;2024-03-29T10:38:36;1.23;;;0.60;;
44078;SDS011;29744;49.078;12.878;2024-03-29T10:43:36;1.38;;;0.75;;
44078;SDS011;29744;49.078;12.878;2024-03-29T10:48:38;1.88;;;0.90;;
44078;SDS011;29744;49.078;12.878;2024-03-29T10:53:39;3.40;;;0.88;;
44078;SDS011;29744;49.078;12.878;2024-03-29T10:58:40;1.42;;;0.70;;
44078;SDS011;29744;49.078;12.878;2024-03-29T11:03:53;1.65;;;0.68;;
44078;SDS011;29744;49.078;12.878;2024-03-29T11:08:57;1.50;;;0.80;;
44078;SDS011;29744;49.078;12.878;2024-03-29T11:14:02;1.67;;;0.90;;
44078;SDS011;29744;49.078;12.878;2024-03-29T11:19:05;1.30;;;0.60;;
44078;SDS011;29744;49.078;12.878;2024-03-29T11:24:06;1.65;;;0.75;;
44078;SDS011;29744;49.078;12.878;2024-03-29T11:29:17;1.98;;;0.80;;
44078;SDS011;29744;49.078;12.878;2024-03-29T11:34:19;1.45;;;0.63;;
44078;SDS011;29744;49.078;12.878;2024-03-29T11:39:20;1.83;;;0.80;;
44078;SDS011;29744;49.078;12.878;2024-03-29T11:44:22;1.77;;;0.77;;
44078;SDS011;29744;49.078;12.878;2024-03-29T11:49:22;1.85;;;0.70;;
44078;SDS011;29744;49.078;12.878;2024-03-29T11:54:22;1.75;;;0.70;;
44078;SDS011;29744;49.078;12.878;2024-03-29T11:59:23;1.67;;;0.77;;
44078;SDS011;29744;49.078;12.878;2024-03-29T12:04:23;1.67;;;0.90;;
44078;SDS011;29744;49.078;12.878;2024-03-29T12:09:24;1.40;;;0.63;;
44078;SDS011;29744;49.078;12.878;2024-03-29T12:14:24;1.58;;;0.70;;
44078;SDS011;29744;49.078;12.878;2024-03-29T12:19:24;1.30;;;0.75;;
44078;SDS011;29744;49.078;12.878;2024-03-29T12:24:27;1.05;;;0.60;;
44078;SDS011;29744;49.078;12.878;2024-03-29T12:29:28;1.45;;;0.75;;
44078;SDS011;29744;49.078;12.878;2024-03-29T12:34:28;1.15;;;0.70;;
44078;SDS011;29744;49.078;12.878;2024-03-29T12:39:30;1.58;;;0.70;;
44078;SDS011;29744;49.078;12.878;2024-03-29T12:44:33;2.03;;;0.80;;
44078;SDS011;29744;49.078;12.878;2024-03-29T12:49:33;1.35;;;0.65;;
44078;SDS011;29744;49.078;12.878;2024-03-29T12:54:34;1.63;;;0.70;;
44078;SDS011;29744;49.078;12.878;2024-03-29T12:59:34;1.45;;;0.60;;
44078;SDS011;29744;49.078;12.878;2024-03-29T13:04:34;2.20;;;0.80;;
44078;SDS011;29744;49.078;12.878;2024-03-29T13:09:35;1.83;;;0.80;;
44078;SDS011;29744;49.078;12.878;2024-03-29T13:14:35;1.25;;;0.70;;
44078;SDS011;29744;49.078;12.878;2024-03-29T13:19:36;1.85;;;0.70;;
44078;SDS011;29744;49.078;12.878;2024-03-29T13:24:36;1.42;;;0.70;;
44078;SDS011;29744;49.078;12.878;2024-03-29T13:29:37;1.85;;;0.73;;
44078;SDS011;29744;49.078;12.878;2024-03-29T13:34:37;1.67;;;0.70;;
44078;SDS011;29744;49.078;12.878;2024-03-29T13:39:37;1.63;;;0.80;;
44078;SDS011;29744;49.078;12.878;2024-03-29T13:44:38;1.20;;;0.60;;
44078;SDS011;29744;49.078;12.878;2024-03-29T13:49:38;0.95;;;0.60;;
44078;SDS011;29744;49.078;12.878;2024-03-29T13:54:41;1.13;;;0.70;;
44078;SDS011;29744;49.078;12.878;2024-03-29T13:59:45;1.42;;;0.60;;
44078;SDS011;29744;49.078;12.878;2024-03-29T14:04:46;1.38;;;0.60;;
44078;SDS011;29744;49.078;12.878;2024-03-29T14:09:47;1.40;;;0.70;;
44078;SDS011;29744;49.078;12.878;2024-03-29T14:14:48;1.38;;;0.68;;
44078;SDS011;29744;49.078;12.878;2024-03-29T14:19:50;1.17;;;0.70;;
44078;SDS011;29744;49.078;12.878;2024-03-29T14:24:51;1.35;;;0.70;;
44078;SDS011;29744;49.078;12.878;2024-03-29T14:29:51;1.02;;;0.60;;
44078;SDS011;29744;49.078;12.878;2024-03-29T14:34:51;1.83;;;0.70;;
44078;SDS011;29744;49.078;12.878;2024-03-29T14:39:52;1.00;;;0.60;;
44078;SDS011;29744;49.078;12.878;2024-03-29T14:44:52;1.30;;;0.68;;
44078;SDS011;29744;49.078;12.878;2024-03-29T14:49:53;1.25;;;0.70;;
44078;SDS011;29744;49.078;12.878;2024-03-29T14:54:53;1.25;;;0.80;;
44078;SDS011;29744;49.078;12.878;2024-03-29T14:59:53;1.17;;;0.70;;
44078;SDS011;29744;49.078;12.878;2024-03-29T15:04:53;1.35;;;0.68;;
44078;SDS011;29744;49.078;12.878;2024-03-29T15:09:54;1.08;;;0.70;;
44078;SDS011;29744;49.078;12.878;2024-03-29T15:14:54;1.73;;;0.70;;
44078;SDS011;29744;49.078;12.878;2024-03-29T15:19:54;1.75;;;0.65;;
44078;SDS011;29744;49.078;12.878;2024-03-29T15:24:55;1.35;;;0.80;;
44078;SDS011;29744;49.078;12.878;2024-03-29T15:29:55;1.17;;;0.60;;
44078;SDS011;29744;49.078;12.878;2024-03-29T15:34:56;1.05;;;0.60;;
44078;SDS011;29744;49.078;12.878;2024-03-29T15:39:56;0.73;;;0.50;;
44078;SDS011;29744;49.078;12.878;2024-03-29T15:44:56;1.08;;;0.50;;
44078;SDS011;29744;49.078;12.878;2024-03-29T15:49:57;1.30;;;0.70;;
44078;SDS011;29744;49.078;12.878;2024-03-29T15:54:57;1.20;;;0.60;;
44078;SDS011;29744;49.078;12.878;2024-03-29T15:59:57;1.35;;;0.55;;
44078;SDS011;29744;49.078;12.878;2024-03-29T16:04:58;1.60;;;0.70;;
44078;SDS011;29744;49.078;12.878;2024-03-29T16:09:58;1.05;;;0.70;;
44078;SDS011;29744;49.078;12.878;2024-03-29T16:15:01;1.48;;;0.55;;
44078;SDS011;29744;49.078;12.878;2024-03-29T16:20:01;1.58;;;0.60;;
44078;SDS011;29744;49.078;12.878;2024-03-29T16:25:02;1.33;;;0.70;;
44078;SDS011;29744;49.078;12.878;2024-03-29T16:30:02;0.63;;;0.52;;
44078;SDS011;29744;49.078;12.878;2024-03-29T16:35:03;0.70;;;0.50;;
44078;SDS011;29744;49.078;12.878;2024-03-29T16:40:03;1.42;;;0.68;;
44078;SDS011;29744;49.078;12.878;2024-03-29T16:45:04;1.63;;;0.73;;
44078;SDS011;29744;49.078;12.878;2024-03-29T16:50:06;1.48;;;0.65;;
44078;SDS011;29744;49.078;12.878;2024-03-29T16:55:07;0.90;;;0.57;;
44078;SDS011;29744;49.078;12.878;2024-03-29T17:00:09;1.10;;;0.60;;
44078;SDS011;29744;49.078;12.878;2024-03-29T17:05:12;1.17;;;0.60;;
44078;SDS011;29744;49.078;12.878;2024-03-29T17:10:13;0.63;;;0.50;;
44078;SDS011;29744;49.078;12.878;2024-03-29T17:15:13;1.52;;;0.60;;
44078;SDS011;29744;49.078;12.878;2024-03-29T17:20:14;1.23;;;0.50;;
44078;SDS011;29744;49.078;12.878;2024-03-29T17:25:14;1.65;;;0.80;;
44078;SDS011;29744;49.078;12.878;2024-03-29T17:30:14;0.45;;;0.40;;
44078;SDS011;29744;49.078;12.878;2024-03-29T17:35:15;1.52;;;0.77;;
44078;SDS011;29744;49.078;12.878;2024-03-29T17:40:15;1.30;;;0.57;;
44078;SDS011;29744;49.078;12.878;2024-03-29T17:45:16;0.90;;;0.60;;
44078;SDS011;29744;49.078;12.878;2024-03-29T17:50:16;0.90;;;0.50;;
44078;SDS011;29744;49.078;12.878;2024-03-29T17:55:17;1.13;;;0.60;;
44078;SDS011;29744;49.078;12.878;2024-03-29T18:00:17;1.10;;;0.60;;
44078;SDS011;29744;49.078;12.878;2024-03-29T18:05:17;0.93;;;0.63;;
44078;SDS011;29744;49.078;12.878;2024-03-29T18:10:18;1.20;;;0.55;;
44078;SDS011;29744;49.078;12.878;2024-03-29T18:15:20;1.40;;;0.80;;
44078;SDS011;29744;49.078;12.878;2024-03-29T18:20:20;0.80;;;0.50;;
44078;SDS011;29744;49.078;12.878;2024-03-29T18:25:21;1.40;;;0.68;;
44078;SDS011;29744;49.078;12.878;2024-03-29T18:30:21;1.48;;;0.70;;
44078;SDS011;29744;49.078;12.878;2024-03-29T18:35:22;0.80;;;0.60;;
44078;SDS011;29744;49.078;12.878;2024-03-29T18:40:22;1.77;;;0.80;;
44078;SDS011;29744;49.078;12.878;2024-03-29T18:45:23;0.77;;;0.50;;
44078;SDS011;29744;49.078;12.878;2024-03-29T18:50:25;0.85;;;0.60;;
44078;SDS011;29744;49.078;12.878;2024-03-29T18:55:26;1.30;;;0.55;;
44078;SDS011;29744;49.078;12.878;2024-03-29T19:00:26;1.10;;;0.70;;
44078;SDS011;29744;49.078;12.878;2024-03-29T19:05:27;1.67;;;0.80;;
44078;SDS011;29744;49.078;12.878;2024-03-29T19:10:27;1.27;;;0.60;;
44078;SDS011;29744;49.078;12.878;2024-03-29T19:15:28;0.88;;;0.50;;
44078;SDS011;29744;49.078;12.878;2024-03-29T19:20:28;0.82;;;0.60;;
44078;SDS011;29744;49.078;12.878;2024-03-29T19:25:28;1.15;;;0.57;;
44078;SDS011;29744;49.078;12.878;2024-03-29T19:30:29;1.25;;;0.60;;
44078;SDS011;29744;49.078;12.878;2024-03-29T19:35:29;1.20;;;0.70;;
44078;SDS011;29744;49.078;12.878;2024-03-29T19:40:29;1.25;;;0.60;;
44078;SDS011;29744;49.078;12.878;2024-03-29T19:45:29;0.75;;;0.50;;
44078;SDS011;29744;49.078;12.878;2024-03-29T19:50:31;1.10;;;0.50;;
44078;SDS011;29744;49.078;12.878;2024-03-29T19:55:32;1.27;;;0.73;;
44078;SDS011;29744;49.078;12.878;2024-03-29T20:00:32;1.30;;;0.70;;
44078;SDS011;29744;49.078;12.878;2024-03-29T20:05:33;1.50;;;0.68;;
44078;SDS011;29744;49.078;12.878;2024-03-29T20:10:36;1.26;;;0.60;;
44078;SDS011;29744;49.078;12.878;2024-03-29T20:15:41;1.10;;;0.55;;
44078;SDS011;29744;49.078;12.878;2024-03-29T20:20:47;0.77;;;0.40;;
44078;SDS011;29744;49.078;12.878;2024-03-29T20:25:48;1.65;;;0.75;;
44078;SDS011;29744;49.078;12.878;2024-03-29T20:30:49;1.20;;;0.52;;
44078;SDS011;29744;49.078;12.878;2024-03-29T20:35:49;1.45;;;0.77;;
44078;SDS011;29744;49.078;12.878;2024-03-29T20:40:49;0.88;;;0.60;;
44078;SDS011;29744;49.078;12.878;2024-03-29T20:45:52;1.48;;;0.57;;
44078;SDS011;29744;49.078;12.878;2024-03-29T20:50:57;1.25;;;0.70;;
44078;SDS011;29744;49.078;12.878;2024-03-29T20:56:03;1.10;;;0.60;;
44078;SDS011;29744;49.078;12.878;2024-03-29T21:01:04;1.27;;;0.70;;
44078;SDS011;29744;49.078;12.878;2024-03-29T21:06:04;0.68;;;0.55;;
44078;SDS011;29744;49.078;12.878;2024-03-29T21:11:05;0.80;;;0.57;;
44078;SDS011;29744;49.078;12.878;2024-03-29T21:16:05;1.20;;;0.63;;
44078;SDS011;29744;49.078;12.878;2024-03-29T21:21:06;0.73;;;0.50;;
44078;SDS011;29744;49.078;12.878;2024-03-29T21:26:06;0.73;;;0.50;;
44078;SDS011;29744;49.078;12.878;2024-03-29T21:31:07;0.80;;;0.50;;
44078;SDS011;29744;49.078;12.878;2024-03-29T21:36:07;0.60;;;0.60;;
44078;SDS011;29744;49.078;12.878;2024-03-29T21:41:07;1.00;;;0.70;;
44078;SDS011;29744;49.078;12.878;2024-03-29T21:46:08;0.82;;;0.43;;
44078;SDS011;29744;49.078;12.878;2024-03-29T21:51:08;1.63;;;0.77;;
44078;SDS011;29744;49.078;12.878;2024-03-29T21:56:09;1.30;;;0.73;;
44078;SDS011;29744;49.078;12.878;2024-03-29T22:01:09;1.48;;;0.70;;
44078;SDS011;29744;49.078;12.878;2024-03-29T22:06:09;1.65;;;0.90;;
44078;SDS011;29744;49.078;12.878;2024-03-29T22:11:10;2.22;;;0.88;;
44078;SDS011;29744;49.078;12.878;2024-03-29T22:16:10;1.08;;;0.60;;
44078;SDS011;29744;49.078;12.878;2024-03-29T22:21:11;0.88;;;0.60;;
44078;SDS011;29744;49.078;12.878;2024-03-29T22:26:11;1.55;;;0.70;;
44078;SDS011;29744;49.078;12.878;2024-03-29T22:31:11;1.45;;;0.65;;
44078;SDS011;29744;49.078;12.878;2024-03-29T22:36:12;1.83;;;0.70;;
44078;SDS011;29744;49.078;12.878;2024-03-29T22:41:12;1.23;;;0.50;;
44078;SDS011;29744;49.078;12.878;2024-03-29T22:46:12;2.13;;;0.70;;
44078;SDS011;29744;49.078;12.878;2024-03-29T22:51:13;1.65;;;0.80;;
44078;SDS011;29744;49.078;12.878;2024-03-29T22:56:13;1.77;;;0.88;;
44078;SDS011;29744;49.078;12.878;2024-03-29T23:01:14;2.03;;;0.75;;
44078;SDS011;29744;49.078;12.878;2024-03-29T23:06:14;1.33;;;0.70;;
44078;SDS011;29744;49.078;12.878;2024-03-29T23:11:14;2.20;;;1.00;;
44078;SDS011;29744;49.078;12.878;2024-03-29T23:16:15;2.17;;;0.90;;
44078;SDS011;29744;49.078;12.878;2024-03-29T23:21:17;1.90;;;0.70;;
44078;SDS011;29744;49.078;12.878;2024-03-29T23:26:17;2.33;;;0.93;;
44078;SDS011;29744;49.078;12.878;2024-03-29T23:31:18;1.52;;;0.63;;
44078;SDS011;29744;49.078;12.878;2024-03-29T23:36:18;1.77;;;0.85;;
44078;SDS011;29744;49.078;12.878;2024-03-29T23:41:19;2.03;;;0.90;;
44078;SDS011;29744;49.078;12.878;2024-03-29T23:46:19;2.20;;;0.90;;
44078;SDS011;29744;49.078;12.878;2024-03-29T23:51:19;1.70;;;0.80;;
44078;SDS011;29744;49.078;12.878;2024-03-29T23:56:20;5.13;;;0.98;;
